sensor_id;sensor_type;location;lat;lon;timestamp;temperature;humidity
9057;DHT22;4563;54.756;9.400;2023-02-28T00:00:29;8.00;66.70
9057;DHT22;4563;54.756;9.400;2023-02-28T00:02:57;8.00;66.80
9057;DHT22;4563;54.756;9.400;2023-02-28T00:05:26;8.00;66.90
9057;DHT22;4563;54.756;9.400;2023-02-28T00:07:54;8.00;67.10
9057;DHT22;4563;54.756;9.400;2023-02-28T00:10:23;7.90;67.00
9057;DHT22;4563;54.756;9.400;2023-02-28T00:12:53;7.90;67.20
9057;DHT22;4563;54.756;9.400;2023-02-28T00:15:23;7.90;67.20
9057;DHT22;4563;54.756;9.400;2023-02-28T00:17:50;7.90;67.20
9057;DHT22;4563;54.756;9.400;2023-02-28T00:20:17;7.90;67.20
9057;DHT22;4563;54.756;9.400;2023-02-28T00:22:47;7.90;67.30
9057;DHT22;4563;54.756;9.400;2023-02-28T00:25:16;7.90;67.40
9057;DHT22;4563;54.756;9.400;2023-02-28T00:27:43;7.80;67.40
9057;DHT22;4563;54.756;9.400;2023-02-28T00:30:14;7.90;67.60
9057;DHT22;4563;54.756;9.400;2023-02-28T00:32:41;7.80;67.70
9057;DHT22;4563;54.756;9.400;2023-02-28T00:35:09;7.90;67.80
9057;DHT22;4563;54.756;9.400;2023-02-28T00:37:37;7.80;67.80
9057;DHT22;4563;54.756;9.400;2023-02-28T00:40:05;7.80;67.90
9057;DHT22;4563;54.756;9.400;2023-02-28T00:42:33;7.80;68.00
9057;DHT22;4563;54.756;9.400;2023-02-28T00:45:00;7.80;67.90
9057;DHT22;4563;54.756;9.400;2023-02-28T00:47:30;7.80;68.00
9057;DHT22;4563;54.756;9.400;2023-02-28T00:49:57;7.80;68.10
9057;DHT22;4563;54.756;9.400;2023-02-28T00:52:24;7.80;68.10
9057;DHT22;4563;54.756;9.400;2023-02-28T00:54:51;7.80;68.20
9057;DHT22;4563;54.756;9.400;2023-02-28T00:57:18;7.80;68.20
9057;DHT22;4563;54.756;9.400;2023-02-28T00:59:44;7.80;68.30
9057;DHT22;4563;54.756;9.400;2023-02-28T01:02:11;7.80;68.40
9057;DHT22;4563;54.756;9.400;2023-02-28T01:04:39;7.80;68.60
9057;DHT22;4563;54.756;9.400;2023-02-28T01:07:06;7.80;68.60
9057;DHT22;4563;54.756;9.400;2023-02-28T01:09:33;7.80;68.60
9057;DHT22;4563;54.756;9.400;2023-02-28T01:12:00;7.80;68.70
9057;DHT22;4563;54.756;9.400;2023-02-28T01:14:27;7.80;68.80
9057;DHT22;4563;54.756;9.400;2023-02-28T01:16:54;7.80;68.80
9057;DHT22;4563;54.756;9.400;2023-02-28T01:19:20;7.80;68.80
9057;DHT22;4563;54.756;9.400;2023-02-28T01:21:48;7.80;68.90
9057;DHT22;4563;54.756;9.400;2023-02-28T01:24:15;7.80;68.90
9057;DHT22;4563;54.756;9.400;2023-02-28T01:26:42;7.80;69.00
9057;DHT22;4563;54.756;9.400;2023-02-28T01:29:09;7.80;69.10
9057;DHT22;4563;54.756;9.400;2023-02-28T01:31:36;7.80;69.10
9057;DHT22;4563;54.756;9.400;2023-02-28T01:34:03;7.80;69.20
9057;DHT22;4563;54.756;9.400;2023-02-28T01:36:30;7.70;69.20
9057;DHT22;4563;54.756;9.400;2023-02-28T01:38:58;7.80;69.40
9057;DHT22;4563;54.756;9.400;2023-02-28T01:41:27;7.70;69.40
9057;DHT22;4563;54.756;9.400;2023-02-28T01:43:58;7.70;69.50
9057;DHT22;4563;54.756;9.400;2023-02-28T01:46:29;7.70;69.60
9057;DHT22;4563;54.756;9.400;2023-02-28T01:49:01;7.70;69.50
9057;DHT22;4563;54.756;9.400;2023-02-28T01:51:31;7.70;69.60
9057;DHT22;4563;54.756;9.400;2023-02-28T01:54:03;7.70;69.60
9057;DHT22;4563;54.756;9.400;2023-02-28T01:56:34;7.70;69.60
9057;DHT22;4563;54.756;9.400;2023-02-28T01:59:02;7.70;69.60
9057;DHT22;4563;54.756;9.400;2023-02-28T02:01:30;7.70;69.60
9057;DHT22;4563;54.756;9.400;2023-02-28T02:04:00;7.70;69.60
9057;DHT22;4563;54.756;9.400;2023-02-28T02:06:30;7.70;69.60
9057;DHT22;4563;54.756;9.400;2023-02-28T02:08:57;7.60;69.50
9057;DHT22;4563;54.756;9.400;2023-02-28T02:11:26;7.60;69.40
9057;DHT22;4563;54.756;9.400;2023-02-28T02:17:04;7.60;69.50
9057;DHT22;4563;54.756;9.400;2023-02-28T02:20:08;7.60;69.50
9057;DHT22;4563;54.756;9.400;2023-02-28T02:25:55;7.50;69.40
9057;DHT22;4563;54.756;9.400;2023-02-28T02:28:52;7.50;69.40
9057;DHT22;4563;54.756;9.400;2023-02-28T02:34:34;7.50;69.30
9057;DHT22;4563;54.756;9.400;2023-02-28T02:37:12;7.40;69.10
9057;DHT22;4563;54.756;9.400;2023-02-28T02:39:48;7.40;69.10
9057;DHT22;4563;54.756;9.400;2023-02-28T02:42:21;7.30;69.10
9057;DHT22;4563;54.756;9.400;2023-02-28T02:44:52;7.30;69.00
9057;DHT22;4563;54.756;9.400;2023-02-28T02:47:22;7.30;68.90
9057;DHT22;4563;54.756;9.400;2023-02-28T02:49:54;7.30;68.90
9057;DHT22;4563;54.756;9.400;2023-02-28T02:52:25;7.20;68.80
9057;DHT22;4563;54.756;9.400;2023-02-28T02:54:56;7.20;68.80
9057;DHT22;4563;54.756;9.400;2023-02-28T02:57:26;7.20;68.80
9057;DHT22;4563;54.756;9.400;2023-02-28T02:59:55;7.10;68.70
9057;DHT22;4563;54.756;9.400;2023-02-28T03:02:23;7.10;68.70
9057;DHT22;4563;54.756;9.400;2023-02-28T03:04:56;7.00;68.70
9057;DHT22;4563;54.756;9.400;2023-02-28T03:07:26;7.00;68.80
9057;DHT22;4563;54.756;9.400;2023-02-28T03:09:54;7.00;68.70
9057;DHT22;4563;54.756;9.400;2023-02-28T03:12:23;7.00;68.80
9057;DHT22;4563;54.756;9.400;2023-02-28T03:14:56;6.90;68.70
9057;DHT22;4563;54.756;9.400;2023-02-28T03:17:50;6.80;68.70
9057;DHT22;4563;54.756;9.400;2023-02-28T03:20:27;6.80;68.70
9057;DHT22;4563;54.756;9.400;2023-02-28T03:23:07;6.80;68.70
9057;DHT22;4563;54.756;9.400;2023-02-28T03:25:50;6.80;68.70
9057;DHT22;4563;54.756;9.400;2023-02-28T03:28:30;6.70;68.60
9057;DHT22;4563;54.756;9.400;2023-02-28T03:31:00;6.70;68.60
9057;DHT22;4563;54.756;9.400;2023-02-28T03:33:33;6.70;69.30
9057;DHT22;4563;54.756;9.400;2023-02-28T03:36:06;6.60;68.50
9057;DHT22;4563;54.756;9.400;2023-02-28T03:38:38;6.50;68.40
9057;DHT22;4563;54.756;9.400;2023-02-28T03:41:10;6.50;68.40
9057;DHT22;4563;54.756;9.400;2023-02-28T03:43:41;6.50;68.40
9057;DHT22;4563;54.756;9.400;2023-02-28T03:46:12;6.50;68.40
9057;DHT22;4563;54.756;9.400;2023-02-28T03:48:44;6.40;68.40
9057;DHT22;4563;54.756;9.400;2023-02-28T03:51:16;6.40;68.40
9057;DHT22;4563;54.756;9.400;2023-02-28T03:53:46;6.30;68.30
9057;DHT22;4563;54.756;9.400;2023-02-28T03:56:17;6.30;68.30
9057;DHT22;4563;54.756;9.400;2023-02-28T03:58:47;6.30;68.30
9057;DHT22;4563;54.756;9.400;2023-02-28T04:01:20;6.20;68.20
9057;DHT22;4563;54.756;9.400;2023-02-28T04:03:48;6.20;68.20
9057;DHT22;4563;54.756;9.400;2023-02-28T04:06:19;6.20;68.10
9057;DHT22;4563;54.756;9.400;2023-02-28T04:08:47;6.20;68.10
9057;DHT22;4563;54.756;9.400;2023-02-28T04:11:20;6.10;68.00
9057;DHT22;4563;54.756;9.400;2023-02-28T04:13:47;6.00;67.90
9057;DHT22;4563;54.756;9.400;2023-02-28T04:16:14;6.00;67.90
9057;DHT22;4563;54.756;9.400;2023-02-28T04:18:42;5.90;68.00
9057;DHT22;4563;54.756;9.400;2023-02-28T04:21:10;5.90;68.00
9057;DHT22;4563;54.756;9.400;2023-02-28T04:23:38;5.90;68.00
9057;DHT22;4563;54.756;9.400;2023-02-28T04:26:05;5.80;68.00
9057;DHT22;4563;54.756;9.400;2023-02-28T04:28:32;5.80;68.10
9057;DHT22;4563;54.756;9.400;2023-02-28T04:31:02;5.70;68.00
9057;DHT22;4563;54.756;9.400;2023-02-28T04:33:31;5.70;68.10
9057;DHT22;4563;54.756;9.400;2023-02-28T04:35:59;5.70;68.10
9057;DHT22;4563;54.756;9.400;2023-02-28T04:38:26;5.70;68.20
9057;DHT22;4563;54.756;9.400;2023-02-28T04:40:57;5.60;68.00
9057;DHT22;4563;54.756;9.400;2023-02-28T04:43:24;5.60;68.20
9057;DHT22;4563;54.756;9.400;2023-02-28T04:45:50;5.60;68.20
9057;DHT22;4563;54.756;9.400;2023-02-28T04:48:17;5.50;68.20
9057;DHT22;4563;54.756;9.400;2023-02-28T04:50:44;5.50;68.20
9057;DHT22;4563;54.756;9.400;2023-02-28T04:53:11;5.50;68.20
9057;DHT22;4563;54.756;9.400;2023-02-28T04:55:38;5.40;68.20
9057;DHT22;4563;54.756;9.400;2023-02-28T04:58:07;5.50;68.40
9057;DHT22;4563;54.756;9.400;2023-02-28T05:00:33;5.40;68.30
9057;DHT22;4563;54.756;9.400;2023-02-28T05:03:00;5.40;68.40
9057;DHT22;4563;54.756;9.400;2023-02-28T05:05:27;5.40;68.40
9057;DHT22;4563;54.756;9.400;2023-02-28T05:07:54;5.30;68.30
9057;DHT22;4563;54.756;9.400;2023-02-28T05:10:21;5.30;68.30
9057;DHT22;4563;54.756;9.400;2023-02-28T05:12:48;5.30;68.40
9057;DHT22;4563;54.756;9.400;2023-02-28T05:15:17;5.30;68.50
9057;DHT22;4563;54.756;9.400;2023-02-28T05:17:44;5.20;68.30
9057;DHT22;4563;54.756;9.400;2023-02-28T05:20:11;5.20;68.40
9057;DHT22;4563;54.756;9.400;2023-02-28T05:22:39;5.20;68.50
9057;DHT22;4563;54.756;9.400;2023-02-28T05:25:06;5.10;68.50
9057;DHT22;4563;54.756;9.400;2023-02-28T05:27:35;5.10;68.60
9057;DHT22;4563;54.756;9.400;2023-02-28T05:30:02;5.10;68.60
9057;DHT22;4563;54.756;9.400;2023-02-28T05:32:31;5.10;68.60
9057;DHT22;4563;54.756;9.400;2023-02-28T05:34:58;5.10;68.70
9057;DHT22;4563;54.756;9.400;2023-02-28T05:37:24;5.10;68.70
9057;DHT22;4563;54.756;9.400;2023-02-28T05:39:51;5.00;68.60
9057;DHT22;4563;54.756;9.400;2023-02-28T05:42:18;5.00;68.60
9057;DHT22;4563;54.756;9.400;2023-02-28T05:44:45;5.00;68.50
9057;DHT22;4563;54.756;9.400;2023-02-28T05:47:12;5.00;68.60
9057;DHT22;4563;54.756;9.400;2023-02-28T05:49:42;4.90;68.50
9057;DHT22;4563;54.756;9.400;2023-02-28T05:52:09;4.90;68.60
9057;DHT22;4563;54.756;9.400;2023-02-28T05:54:36;4.90;68.60
9057;DHT22;4563;54.756;9.400;2023-02-28T05:57:03;4.90;68.70
9057;DHT22;4563;54.756;9.400;2023-02-28T05:59:29;4.90;68.70
9057;DHT22;4563;54.756;9.400;2023-02-28T06:01:56;4.90;68.70
9057;DHT22;4563;54.756;9.400;2023-02-28T06:04:23;4.90;68.70
9057;DHT22;4563;54.756;9.400;2023-02-28T06:06:51;4.80;68.60
9057;DHT22;4563;54.756;9.400;2023-02-28T06:09:19;4.80;68.70
9057;DHT22;4563;54.756;9.400;2023-02-28T06:11:45;4.80;68.70
9057;DHT22;4563;54.756;9.400;2023-02-28T06:14:15;4.80;68.80
9057;DHT22;4563;54.756;9.400;2023-02-28T06:16:42;4.80;68.90
9057;DHT22;4563;54.756;9.400;2023-02-28T06:19:10;4.70;68.80
9057;DHT22;4563;54.756;9.400;2023-02-28T06:21:37;4.70;68.80
9057;DHT22;4563;54.756;9.400;2023-02-28T06:24:06;4.70;68.80
9057;DHT22;4563;54.756;9.400;2023-02-28T06:26:33;4.70;68.90
9057;DHT22;4563;54.756;9.400;2023-02-28T06:29:00;4.70;68.90
9057;DHT22;4563;54.756;9.400;2023-02-28T06:31:27;4.70;68.90
9057;DHT22;4563;54.756;9.400;2023-02-28T06:33:54;4.60;68.90
9057;DHT22;4563;54.756;9.400;2023-02-28T06:36:21;4.60;68.90
9057;DHT22;4563;54.756;9.400;2023-02-28T06:38:48;4.60;69.10
9057;DHT22;4563;54.756;9.400;2023-02-28T06:41:22;4.60;69.10
9057;DHT22;4563;54.756;9.400;2023-02-28T06:43:49;4.60;69.20
9057;DHT22;4563;54.756;9.400;2023-02-28T06:46:16;4.60;69.00
9057;DHT22;4563;54.756;9.400;2023-02-28T06:48:43;4.60;69.10
9057;DHT22;4563;54.756;9.400;2023-02-28T06:51:13;4.50;69.10
9057;DHT22;4563;54.756;9.400;2023-02-28T06:53:40;4.60;69.30
9057;DHT22;4563;54.756;9.400;2023-02-28T06:56:09;4.50;69.20
9057;DHT22;4563;54.756;9.400;2023-02-28T06:58:37;4.50;69.30
9057;DHT22;4563;54.756;9.400;2023-02-28T07:01:05;4.50;69.30
9057;DHT22;4563;54.756;9.400;2023-02-28T07:03:32;4.50;69.40
9057;DHT22;4563;54.756;9.400;2023-02-28T07:06:01;4.50;69.50
9057;DHT22;4563;54.756;9.400;2023-02-28T07:08:29;4.50;69.60
9057;DHT22;4563;54.756;9.400;2023-02-28T07:10:57;4.50;69.60
9057;DHT22;4563;54.756;9.400;2023-02-28T07:13:24;4.50;69.70
9057;DHT22;4563;54.756;9.400;2023-02-28T07:15:57;4.50;69.80
9057;DHT22;4563;54.756;9.400;2023-02-28T07:18:24;4.50;69.90
9057;DHT22;4563;54.756;9.400;2023-02-28T07:20:51;4.50;70.00
9057;DHT22;4563;54.756;9.400;2023-02-28T07:23:18;4.50;70.00
9057;DHT22;4563;54.756;9.400;2023-02-28T07:25:45;4.50;70.10
9057;DHT22;4563;54.756;9.400;2023-02-28T07:28:12;4.50;70.30
9057;DHT22;4563;54.756;9.400;2023-02-28T07:30:40;4.50;70.40
9057;DHT22;4563;54.756;9.400;2023-02-28T07:33:09;4.50;70.50
9057;DHT22;4563;54.756;9.400;2023-02-28T07:35:36;4.60;71.40
9057;DHT22;4563;54.756;9.400;2023-02-28T07:38:03;4.50;70.40
9057;DHT22;4563;54.756;9.400;2023-02-28T07:40:30;4.50;70.80
9057;DHT22;4563;54.756;9.400;2023-02-28T07:42:59;4.60;71.00
9057;DHT22;4563;54.756;9.400;2023-02-28T07:45:26;4.60;71.10
9057;DHT22;4563;54.756;9.400;2023-02-28T07:47:54;4.60;71.20
9057;DHT22;4563;54.756;9.400;2023-02-28T07:50:23;4.70;71.50
9057;DHT22;4563;54.756;9.400;2023-02-28T07:52:50;4.70;71.60
9057;DHT22;4563;54.756;9.400;2023-02-28T07:55:17;4.70;71.70
9057;DHT22;4563;54.756;9.400;2023-02-28T07:57:44;4.70;71.70
9057;DHT22;4563;54.756;9.400;2023-02-28T08:00:12;4.80;72.00
9057;DHT22;4563;54.756;9.400;2023-02-28T08:02:39;4.80;72.10
9057;DHT22;4563;54.756;9.400;2023-02-28T08:05:07;4.80;72.20
9057;DHT22;4563;54.756;9.400;2023-02-28T08:07:35;4.90;72.50
9057;DHT22;4563;54.756;9.400;2023-02-28T08:10:02;4.90;72.70
9057;DHT22;4563;54.756;9.400;2023-02-28T08:12:31;4.90;72.90
9057;DHT22;4563;54.756;9.400;2023-02-28T08:14:57;4.90;73.00
9057;DHT22;4563;54.756;9.400;2023-02-28T08:17:24;5.00;73.30
9057;DHT22;4563;54.756;9.400;2023-02-28T08:19:51;5.00;73.40
9057;DHT22;4563;54.756;9.400;2023-02-28T08:22:18;5.10;73.70
9057;DHT22;4563;54.756;9.400;2023-02-28T08:24:47;5.10;73.80
9057;DHT22;4563;54.756;9.400;2023-02-28T08:27:14;5.10;74.00
9057;DHT22;4563;54.756;9.400;2023-02-28T08:29:42;5.20;74.20
9057;DHT22;4563;54.756;9.400;2023-02-28T08:32:09;5.20;74.40
9057;DHT22;4563;54.756;9.400;2023-02-28T08:34:38;5.20;74.60
9057;DHT22;4563;54.756;9.400;2023-02-28T08:37:05;5.30;74.90
9057;DHT22;4563;54.756;9.400;2023-02-28T08:39:34;5.30;75.00
9057;DHT22;4563;54.756;9.400;2023-02-28T08:42:03;5.40;75.40
9057;DHT22;4563;54.756;9.400;2023-02-28T08:44:30;5.40;75.50
9057;DHT22;4563;54.756;9.400;2023-02-28T08:46:57;5.50;75.70
9057;DHT22;4563;54.756;9.400;2023-02-28T08:49:24;5.50;75.90
9057;DHT22;4563;54.756;9.400;2023-02-28T08:51:50;5.60;76.10
9057;DHT22;4563;54.756;9.400;2023-02-28T08:54:17;5.60;76.20
9057;DHT22;4563;54.756;9.400;2023-02-28T08:56:45;5.70;76.50
9057;DHT22;4563;54.756;9.400;2023-02-28T08:59:14;5.70;76.70
9057;DHT22;4563;54.756;9.400;2023-02-28T09:01:47;5.80;76.80
9057;DHT22;4563;54.756;9.400;2023-02-28T09:04:14;5.80;76.90
9057;DHT22;4563;54.756;9.400;2023-02-28T09:06:41;5.90;77.10
9057;DHT22;4563;54.756;9.400;2023-02-28T09:09:09;6.00;77.20
9057;DHT22;4563;54.756;9.400;2023-02-28T09:11:38;6.00;77.20
9057;DHT22;4563;54.756;9.400;2023-02-28T09:14:04;6.10;77.30
9057;DHT22;4563;54.756;9.400;2023-02-28T09:16:33;6.10;77.40
9057;DHT22;4563;54.756;9.400;2023-02-28T09:22:43;6.30;77.50
9057;DHT22;4563;54.756;9.400;2023-02-28T09:25:09;6.30;77.50
9057;DHT22;4563;54.756;9.400;2023-02-28T09:27:36;6.40;77.60
9057;DHT22;4563;54.756;9.400;2023-02-28T09:30:04;6.50;77.70
9057;DHT22;4563;54.756;9.400;2023-02-28T09:32:33;6.50;77.70
9057;DHT22;4563;54.756;9.400;2023-02-28T09:35:00;6.50;77.60
9057;DHT22;4563;54.756;9.400;2023-02-28T09:37:27;6.60;77.60
9057;DHT22;4563;54.756;9.400;2023-02-28T09:39:56;6.60;77.50
9057;DHT22;4563;54.756;9.400;2023-02-28T09:42:31;6.70;77.40
9057;DHT22;4563;54.756;9.400;2023-02-28T09:44:59;6.70;77.40
9057;DHT22;4563;54.756;9.400;2023-02-28T09:47:30;6.80;77.30
9057;DHT22;4563;54.756;9.400;2023-02-28T09:50:06;6.80;77.10
9057;DHT22;4563;54.756;9.400;2023-02-28T09:52:38;6.90;77.10
9057;DHT22;4563;54.756;9.400;2023-02-28T09:55:28;7.00;77.10
9057;DHT22;4563;54.756;9.400;2023-02-28T09:57:57;7.00;77.80
9057;DHT22;4563;54.756;9.400;2023-02-28T10:00:30;7.10;77.10
9057;DHT22;4563;54.756;9.400;2023-02-28T10:03:25;7.10;77.10
9057;DHT22;4563;54.756;9.400;2023-02-28T10:06:01;7.10;76.90
9057;DHT22;4563;54.756;9.400;2023-02-28T10:08:36;7.20;77.00
9057;DHT22;4563;54.756;9.400;2023-02-28T10:11:09;7.20;76.80
9057;DHT22;4563;54.756;9.400;2023-02-28T10:13:42;7.30;76.80
9057;DHT22;4563;54.756;9.400;2023-02-28T10:16:16;7.30;76.90
9057;DHT22;4563;54.756;9.400;2023-02-28T10:18:47;7.40;76.90
9057;DHT22;4563;54.756;9.400;2023-02-28T10:21:21;7.40;76.90
9057;DHT22;4563;54.756;9.400;2023-02-28T10:23:55;7.50;76.90
9057;DHT22;4563;54.756;9.400;2023-02-28T10:26:26;7.50;76.80
9057;DHT22;4563;54.756;9.400;2023-02-28T10:28:55;7.60;76.70
9057;DHT22;4563;54.756;9.400;2023-02-28T10:31:22;7.60;76.60
9057;DHT22;4563;54.756;9.400;2023-02-28T10:33:49;7.70;76.50
9057;DHT22;4563;54.756;9.400;2023-02-28T10:36:23;7.70;76.30
9057;DHT22;4563;54.756;9.400;2023-02-28T10:38:50;7.70;76.10
9057;DHT22;4563;54.756;9.400;2023-02-28T10:41:27;7.80;76.00
9057;DHT22;4563;54.756;9.400;2023-02-28T10:44:14;7.90;75.90
9057;DHT22;4563;54.756;9.400;2023-02-28T10:46:42;7.90;75.70
9057;DHT22;4563;54.756;9.400;2023-02-28T10:49:15;8.00;75.50
9057;DHT22;4563;54.756;9.400;2023-02-28T10:51:45;8.00;75.40
9057;DHT22;4563;54.756;9.400;2023-02-28T10:54:19;8.00;75.20
9057;DHT22;4563;54.756;9.400;2023-02-28T10:57:06;8.20;75.30
9057;DHT22;4563;54.756;9.400;2023-02-28T10:59:34;8.20;75.20
9057;DHT22;4563;54.756;9.400;2023-02-28T11:02:01;8.20;75.20
9057;DHT22;4563;54.756;9.400;2023-02-28T11:04:34;8.30;75.20
9057;DHT22;4563;54.756;9.400;2023-02-28T11:07:06;8.30;75.00
9057;DHT22;4563;54.756;9.400;2023-02-28T11:09:35;8.40;74.90
9057;DHT22;4563;54.756;9.400;2023-02-28T11:12:05;8.40;74.80
9057;DHT22;4563;54.756;9.400;2023-02-28T11:14:35;8.50;74.70
9057;DHT22;4563;54.756;9.400;2023-02-28T11:17:14;8.60;74.60
9057;DHT22;4563;54.756;9.400;2023-02-28T11:19:47;8.60;74.50
9057;DHT22;4563;54.756;9.400;2023-02-28T11:22:20;8.60;74.40
9057;DHT22;4563;54.756;9.400;2023-02-28T11:24:50;8.70;74.30
9057;DHT22;4563;54.756;9.400;2023-02-28T11:27:48;8.70;74.10
9057;DHT22;4563;54.756;9.400;2023-02-28T11:30:30;8.80;74.10
9057;DHT22;4563;54.756;9.400;2023-02-28T11:32:57;8.80;73.90
9057;DHT22;4563;54.756;9.400;2023-02-28T11:35:27;8.80;73.70
9057;DHT22;4563;54.756;9.400;2023-02-28T11:37:57;8.90;73.70
9057;DHT22;4563;54.756;9.400;2023-02-28T11:40:30;8.90;73.50
9057;DHT22;4563;54.756;9.400;2023-02-28T11:43:11;9.00;73.50
9057;DHT22;4563;54.756;9.400;2023-02-28T11:45:49;9.00;73.50
9057;DHT22;4563;54.756;9.400;2023-02-28T11:48:23;9.10;73.50
9057;DHT22;4563;54.756;9.400;2023-02-28T11:50:59;9.10;73.50
9057;DHT22;4563;54.756;9.400;2023-02-28T11:53:56;9.20;73.50
9057;DHT22;4563;54.756;9.400;2023-02-28T11:56:31;9.20;73.30
9057;DHT22;4563;54.756;9.400;2023-02-28T11:59:14;9.30;73.40
9057;DHT22;4563;54.756;9.400;2023-02-28T12:02:01;9.30;73.30
9057;DHT22;4563;54.756;9.400;2023-02-28T12:04:40;9.40;73.50
9057;DHT22;4563;54.756;9.400;2023-02-28T12:07:18;9.50;73.40
9057;DHT22;4563;54.756;9.400;2023-02-28T12:09:59;9.50;73.10
9057;DHT22;4563;54.756;9.400;2023-02-28T12:12:38;9.60;73.10
9057;DHT22;4563;54.756;9.400;2023-02-28T12:15:25;9.60;73.10
9057;DHT22;4563;54.756;9.400;2023-02-28T12:18:06;9.70;73.10
9057;DHT22;4563;54.756;9.400;2023-02-28T12:20:36;9.70;72.90
9057;DHT22;4563;54.756;9.400;2023-02-28T12:23:40;9.70;72.60
9057;DHT22;4563;54.756;9.400;2023-02-28T12:26:16;9.80;72.70
9057;DHT22;4563;54.756;9.400;2023-02-28T12:28:47;9.90;72.60
9057;DHT22;4563;54.756;9.400;2023-02-28T12:31:20;9.90;72.40
9057;DHT22;4563;54.756;9.400;2023-02-28T12:33:51;10.00;71.30
9057;DHT22;4563;54.756;9.400;2023-02-28T12:36:20;10.10;71.20
9057;DHT22;4563;54.756;9.400;2023-02-28T12:38:52;10.00;70.80
9057;DHT22;4563;54.756;9.400;2023-02-28T12:41:27;10.20;70.90
9057;DHT22;4563;54.756;9.400;2023-02-28T12:44:00;10.20;70.90
9057;DHT22;4563;54.756;9.400;2023-02-28T12:46:32;10.30;71.00
9057;DHT22;4563;54.756;9.400;2023-02-28T12:49:04;10.30;70.60
9057;DHT22;4563;54.756;9.400;2023-02-28T12:51:32;10.40;70.50
9057;DHT22;4563;54.756;9.400;2023-02-28T12:54:10;10.50;70.60
9057;DHT22;4563;54.756;9.400;2023-02-28T12:56:45;10.60;70.60
9057;DHT22;4563;54.756;9.400;2023-02-28T12:59:19;10.70;70.90
9057;DHT22;4563;54.756;9.400;2023-02-28T13:02:09;10.80;70.70
9057;DHT22;4563;54.756;9.400;2023-02-28T13:05:02;10.90;70.80
9057;DHT22;4563;54.756;9.400;2023-02-28T13:07:53;11.00;71.40
9057;DHT22;4563;54.756;9.400;2023-02-28T13:10:22;11.20;71.40
9057;DHT22;4563;54.756;9.400;2023-02-28T13:12:53;11.30;71.20
9057;DHT22;4563;54.756;9.400;2023-02-28T13:15:24;11.40;71.20
9057;DHT22;4563;54.756;9.400;2023-02-28T13:17:55;11.60;71.50
9057;DHT22;4563;54.756;9.400;2023-02-28T13:20:24;11.70;71.10
9057;DHT22;4563;54.756;9.400;2023-02-28T13:22:53;11.90;71.30
9057;DHT22;4563;54.756;9.400;2023-02-28T13:25:50;12.00;71.20
9057;DHT22;4563;54.756;9.400;2023-02-28T13:28:58;12.20;73.20
9057;DHT22;4563;54.756;9.400;2023-02-28T13:31:26;12.40;72.60
9057;DHT22;4563;54.756;9.400;2023-02-28T13:34:14;12.50;71.80
9057;DHT22;4563;54.756;9.400;2023-02-28T13:36:42;12.70;72.10
9057;DHT22;4563;54.756;9.400;2023-02-28T13:42:34;13.00;71.40
9057;DHT22;4563;54.756;9.400;2023-02-28T13:45:26;13.10;69.70
9057;DHT22;4563;54.756;9.400;2023-02-28T13:47:59;13.20;69.80
9057;DHT22;4563;54.756;9.400;2023-02-28T13:50:32;13.30;68.30
9057;DHT22;4563;54.756;9.400;2023-02-28T13:56:10;13.40;68.40
9057;DHT22;4563;54.756;9.400;2023-02-28T13:58:53;13.40;67.20
9057;DHT22;4563;54.756;9.400;2023-02-28T14:07:24;13.60;66.60
9057;DHT22;4563;54.756;9.400;2023-02-28T14:09:58;13.60;65.70
9057;DHT22;4563;54.756;9.400;2023-02-28T14:12:56;13.70;65.50
9057;DHT22;4563;54.756;9.400;2023-02-28T14:15:38;13.70;65.60
9057;DHT22;4563;54.756;9.400;2023-02-28T14:18:16;13.80;65.20
9057;DHT22;4563;54.756;9.400;2023-02-28T14:20:46;13.80;65.00
9057;DHT22;4563;54.756;9.400;2023-02-28T14:23:20;13.80;64.50
9057;DHT22;4563;54.756;9.400;2023-02-28T14:25:53;13.80;64.20
9057;DHT22;4563;54.756;9.400;2023-02-28T14:28:31;13.80;64.20
9057;DHT22;4563;54.756;9.400;2023-02-28T14:31:07;13.70;63.90
9057;DHT22;4563;54.756;9.400;2023-02-28T14:34:02;13.80;63.80
9057;DHT22;4563;54.756;9.400;2023-02-28T14:36:33;13.80;64.30
9057;DHT22;4563;54.756;9.400;2023-02-28T14:39:05;13.70;63.30
9057;DHT22;4563;54.756;9.400;2023-02-28T14:41:34;13.70;63.20
9057;DHT22;4563;54.756;9.400;2023-02-28T14:44:12;13.70;63.10
9057;DHT22;4563;54.756;9.400;2023-02-28T14:46:42;13.70;63.20
9057;DHT22;4563;54.756;9.400;2023-02-28T14:49:18;13.60;63.10
9057;DHT22;4563;54.756;9.400;2023-02-28T14:51:46;13.60;63.20
9057;DHT22;4563;54.756;9.400;2023-02-28T14:54:16;13.60;62.90
9057;DHT22;4563;54.756;9.400;2023-02-28T14:56:43;13.60;62.90
9057;DHT22;4563;54.756;9.400;2023-02-28T14:59:27;13.60;62.90
9057;DHT22;4563;54.756;9.400;2023-02-28T15:02:16;13.60;63.50
9057;DHT22;4563;54.756;9.400;2023-02-28T15:04:52;13.50;63.60
9057;DHT22;4563;54.756;9.400;2023-02-28T15:07:19;13.50;63.50
9057;DHT22;4563;54.756;9.400;2023-02-28T15:10:07;13.60;63.10
9057;DHT22;4563;54.756;9.400;2023-02-28T15:12:35;13.60;63.70
9057;DHT22;4563;54.756;9.400;2023-02-28T15:15:03;13.60;63.20
9057;DHT22;4563;54.756;9.400;2023-02-28T15:17:30;13.60;63.10
9057;DHT22;4563;54.756;9.400;2023-02-28T15:19:58;13.60;62.80
9057;DHT22;4563;54.756;9.400;2023-02-28T15:22:29;13.60;62.80
9057;DHT22;4563;54.756;9.400;2023-02-28T15:24:57;13.60;62.80
9057;DHT22;4563;54.756;9.400;2023-02-28T15:27:27;13.60;62.70
9057;DHT22;4563;54.756;9.400;2023-02-28T15:29:58;13.60;62.80
9057;DHT22;4563;54.756;9.400;2023-02-28T15:32:28;13.50;62.60
9057;DHT22;4563;54.756;9.400;2023-02-28T15:34:56;13.50;62.50
9057;DHT22;4563;54.756;9.400;2023-02-28T15:37:45;13.50;62.40
9057;DHT22;4563;54.756;9.400;2023-02-28T15:40:16;13.40;63.20
9057;DHT22;4563;54.756;9.400;2023-02-28T15:42:58;13.40;62.70
9057;DHT22;4563;54.756;9.400;2023-02-28T15:45:33;13.40;63.00
9057;DHT22;4563;54.756;9.400;2023-02-28T15:48:03;13.30;62.70
9057;DHT22;4563;54.756;9.400;2023-02-28T15:50:30;13.30;62.40
9057;DHT22;4563;54.756;9.400;2023-02-28T15:53:00;13.20;62.20
9057;DHT22;4563;54.756;9.400;2023-02-28T15:55:29;13.10;62.30
9057;DHT22;4563;54.756;9.400;2023-02-28T15:58:00;13.10;62.50
9057;DHT22;4563;54.756;9.400;2023-02-28T16:00:29;13.00;62.50
9057;DHT22;4563;54.756;9.400;2023-02-28T16:02:58;12.90;62.50
9057;DHT22;4563;54.756;9.400;2023-02-28T16:05:27;12.90;62.60
9057;DHT22;4563;54.756;9.400;2023-02-28T16:08:00;12.80;62.70
9057;DHT22;4563;54.756;9.400;2023-02-28T16:10:30;12.80;62.90
9057;DHT22;4563;54.756;9.400;2023-02-28T16:12:57;12.70;63.00
9057;DHT22;4563;54.756;9.400;2023-02-28T16:15:26;12.60;63.00
9057;DHT22;4563;54.756;9.400;2023-02-28T16:17:54;12.60;63.00
9057;DHT22;4563;54.756;9.400;2023-02-28T16:20:23;12.50;63.00
9057;DHT22;4563;54.756;9.400;2023-02-28T16:22:50;12.40;63.20
9057;DHT22;4563;54.756;9.400;2023-02-28T16:25:21;12.40;63.30
9057;DHT22;4563;54.756;9.400;2023-02-28T16:27:50;12.30;63.50
9057;DHT22;4563;54.756;9.400;2023-02-28T16:30:20;12.20;63.40
9057;DHT22;4563;54.756;9.400;2023-02-28T16:32:48;12.20;63.60
9057;DHT22;4563;54.756;9.400;2023-02-28T16:35:15;12.10;63.60
9057;DHT22;4563;54.756;9.400;2023-02-28T16:37:43;12.00;63.70
9057;DHT22;4563;54.756;9.400;2023-02-28T16:40:14;11.90;63.90
9057;DHT22;4563;54.756;9.400;2023-02-28T16:42:43;11.90;64.10
9057;DHT22;4563;54.756;9.400;2023-02-28T16:45:16;11.80;64.20
9057;DHT22;4563;54.756;9.400;2023-02-28T16:47:45;11.70;64.30
9057;DHT22;4563;54.756;9.400;2023-02-28T16:50:17;11.70;64.30
9057;DHT22;4563;54.756;9.400;2023-02-28T16:52:44;11.60;64.60
9057;DHT22;4563;54.756;9.400;2023-02-28T16:55:11;11.50;64.30
9057;DHT22;4563;54.756;9.400;2023-02-28T16:57:38;11.50;64.50
9057;DHT22;4563;54.756;9.400;2023-02-28T17:00:11;11.40;64.60
9057;DHT22;4563;54.756;9.400;2023-02-28T17:02:38;11.30;64.70
9057;DHT22;4563;54.756;9.400;2023-02-28T17:05:05;11.30;64.70